Estación Meteorológica Peña el Pijo (Robertgarden) [ 09/24/17 17:37:59 CEST ]

Fecha Hora Presion(HPa) Temp (°C) Humedad % Rocio (°C) Viento ( m/s) Direccion Lluvia 1Hora(mm) Lluvia 24H(mm) LLuvia Total(mm)
2017-Mar-25 01:01:09 1004.900 1.3 81 -1.6       1.03 1355.60
2017-Mar-25 02:04:09 1004.500 0.2 81 -2.7       1.03 1355.60
2017-Mar-25 03:01:14 1004.200 -0.6 82 -3.3       1.03 1355.60
2017-Mar-25 04:01:12 1004.300 -0.9 83 -3.4       1.03 1355.60
2017-Mar-25 05:01:13 1004.200 -1.7 83 -4.2       1.03 1355.60
2017-Mar-25 06:01:08 1004.200 -2.0 84 -4.4       1.03 1355.60
2017-Mar-25 07:01:10 1004.600 -2.5 84 -4.9       1.03 1355.60
2017-Mar-25 08:01:10 1005.300 -2.5 84 -4.9       1.03 1355.60
2017-Mar-25 09:01:14 1005.000 3.9 85 1.6     0.51 1.03 1356.12
2017-Mar-25 10:01:07 1005.300 9.1 65 2.8       0.51 1356.12
2017-Mar-25 11:01:03 1005.000 12.1 47 1.1       0.51 1356.12
2017-Mar-25 12:01:14 1005.100 15.6 31 -1.5       0.51 1356.12
2017-Mar-25 13:01:17 1004.800 14.9 30 -2.5       0.51 1356.12
2017-Mar-25 14:01:22 1004.300 16.1 34 0.1       0.51 1356.12
2017-Mar-25 15:01:14 1003.700 17.9 28 -1.0       0.51 1356.12
2017-Mar-25 16:01:21 1003.200 17.9 26 -2.1       0.51 1356.12
2017-Mar-25 17:01:17 1003.300 16.2 27 -3.0       0.51 1356.12
2017-Mar-25 18:01:17 1003.500 14.0 29 -3.8       0.51 1356.12
2017-Mar-25 19:01:20 1003.900 11.6 32 -4.6       0.51 1356.12
2017-Mar-25 21:31:34 1006.500 6.2 52 -2.9       0.51 1356.12
2017-Mar-25 22:08:50 1006.900 4.9 56 -3.2       0.51 1356.12

Temperatura Máxima:17°    Temperatura Mínima:-2°
Presión Máxima:1006.900 Hpa    Presión Mínima:1003.200 Hpa


Volver